createdAt,value
2023-01-17T00:02:03.415Z,1.02
2023-01-17T00:04:48.869Z,1.00
2023-01-17T00:07:37.324Z,1.10
2023-01-17T00:10:09.128Z,0.95
2023-01-17T00:12:36.499Z,1.45
2023-01-17T00:15:04.306Z,1.10
2023-01-17T00:17:31.207Z,1.00
2023-01-17T00:20:19.257Z,1.10
2023-01-17T00:23:06.016Z,1.20
2023-01-17T00:25:57.568Z,1.27
2023-01-17T00:28:25.689Z,1.00
2023-01-17T00:30:53.390Z,0.95
2023-01-17T00:33:22.066Z,1.10
2023-01-17T00:35:49.383Z,0.93
2023-01-17T00:38:24.596Z,1.00
2023-01-17T00:40:52.022Z,1.15
2023-01-17T00:43:40.346Z,0.90
2023-01-17T00:46:26.504Z,0.88
2023-01-17T00:49:11.871Z,1.00
2023-01-17T00:51:57.373Z,0.90
2023-01-17T00:54:42.872Z,0.98
2023-01-17T00:57:28.513Z,0.90
2023-01-17T01:00:14.053Z,1.00
2023-01-17T01:02:59.472Z,0.90
2023-01-17T01:05:45.059Z,1.17
2023-01-17T01:08:39.739Z,1.52
2023-01-17T01:11:31.882Z,0.90
2023-01-17T01:14:18.637Z,0.90
2023-01-17T01:17:04.556Z,1.10
2023-01-17T01:19:50.087Z,1.30
2023-01-17T01:22:35.828Z,1.30
2023-01-17T01:25:22.049Z,0.90
2023-01-17T01:28:07.700Z,1.08
2023-01-17T01:30:53.250Z,1.10
2023-01-17T01:33:20.262Z,1.00
2023-01-17T01:35:53.736Z,0.98
2023-01-17T01:38:23.223Z,0.95
2023-01-17T01:40:53.911Z,1.30
2023-01-17T01:43:43.010Z,1.30
2023-01-17T01:46:40.302Z,1.00
2023-01-17T01:49:26.845Z,0.93
2023-01-17T01:52:00.510Z,1.20
2023-01-17T01:54:37.538Z,1.08
2023-01-17T01:57:07.248Z,0.85
2023-01-17T01:59:39.673Z,0.80
2023-01-17T02:02:07.503Z,1.23
2023-01-17T02:04:35.299Z,1.77
2023-01-17T02:07:13.736Z,0.90
2023-01-17T02:09:40.884Z,0.85
2023-01-17T02:12:08.939Z,1.00
2023-01-17T02:14:35.897Z,0.80
2023-01-17T02:17:42.430Z,0.90
2023-01-17T02:20:21.622Z,0.90
2023-01-17T02:23:20.177Z,0.88
2023-01-17T02:26:15.246Z,1.25
2023-01-17T02:29:17.747Z,0.90
2023-01-17T02:32:16.504Z,1.17
2023-01-17T02:34:49.057Z,1.20
2023-01-17T02:37:23.267Z,1.20
2023-01-17T02:40:39.848Z,1.23
2023-01-17T02:43:14.379Z,1.20
2023-01-17T02:45:41.897Z,0.95
2023-01-17T02:48:12.348Z,1.35
2023-01-17T02:51:16.964Z,1.30
2023-01-17T02:54:21.110Z,1.20
2023-01-17T02:57:09.970Z,1.45
2023-01-17T02:59:57.327Z,1.10
2023-01-17T03:02:49.343Z,1.55
2023-01-17T03:05:26.438Z,1.40
2023-01-17T03:07:59.256Z,1.23
2023-01-17T03:10:29.852Z,1.48
2023-01-17T03:13:04.975Z,1.17
2023-01-17T03:15:49.319Z,1.20
2023-01-17T03:18:20.972Z,1.30
2023-01-17T03:20:49.978Z,1.20
2023-01-17T03:23:19.117Z,1.10
2023-01-17T03:25:52.472Z,1.00
2023-01-17T03:28:23.272Z,1.05
2023-01-17T03:30:58.678Z,1.35
2023-01-17T03:33:31.285Z,1.13
2023-01-17T03:36:04.078Z,1.23
2023-01-17T03:38:32.864Z,1.33
2023-01-17T03:41:04.164Z,1.23
2023-01-17T03:43:32.414Z,1.17
2023-01-17T03:46:09.959Z,1.05
2023-01-17T03:48:55.255Z,1.35
2023-01-17T03:51:29.164Z,1.52
2023-01-17T03:54:04.200Z,1.10
2023-01-17T03:56:43.207Z,1.05
2023-01-17T03:59:13.446Z,0.98
2023-01-17T04:01:53.294Z,1.10
2023-01-17T04:04:27.757Z,1.20
2023-01-17T04:06:59.726Z,1.10
2023-01-17T04:09:35.024Z,1.15
2023-01-17T04:12:06.788Z,1.20
2023-01-17T04:14:38.599Z,1.25
2023-01-17T04:17:15.622Z,1.13
2023-01-17T04:19:53.942Z,1.20
2023-01-17T04:22:21.840Z,1.02
2023-01-17T04:24:49.788Z,1.10
2023-01-17T04:27:17.908Z,1.00
2023-01-17T04:29:46.833Z,1.00
2023-01-17T04:32:17.088Z,1.10
2023-01-17T04:34:51.197Z,1.17
2023-01-17T04:37:20.209Z,1.20
2023-01-17T04:39:50.678Z,1.20
2023-01-17T04:42:20.191Z,1.08
2023-01-17T04:44:50.695Z,1.63
2023-01-17T04:47:19.508Z,2.25
2023-01-17T04:49:48.708Z,2.03
2023-01-17T04:52:22.635Z,2.20
2023-01-17T04:55:02.956Z,3.72
2023-01-17T04:57:36.667Z,2.10
2023-01-17T05:00:09.073Z,3.58
2023-01-17T05:02:41.044Z,4.88
2023-01-17T05:05:19.635Z,1.88
2023-01-17T05:08:02.662Z,2.05
2023-01-17T05:10:43.824Z,1.30
2023-01-17T05:13:13.130Z,1.17
2023-01-17T05:15:51.768Z,1.00
2023-01-17T05:18:20.846Z,1.35
2023-01-17T05:20:51.341Z,1.30
2023-01-17T05:23:19.838Z,1.25
2023-01-17T05:25:47.828Z,1.23
2023-01-17T05:29:01.311Z,1.55
2023-01-17T05:31:39.739Z,1.83
2023-01-17T05:37:21.569Z,2.10
2023-01-17T05:39:52.194Z,1.60
2023-01-17T05:42:25.714Z,4.53
2023-01-17T05:47:38.936Z,1.00
2023-01-17T05:50:08.841Z,2.42
2023-01-17T05:52:40.520Z,1.67
2023-01-17T05:55:08.795Z,3.00
2023-01-17T05:57:36.953Z,1.40
2023-01-17T06:00:10.953Z,1.10
2023-01-17T06:02:44.718Z,3.08
2023-01-17T06:05:12.805Z,1.50
2023-01-17T06:07:50.205Z,1.20
2023-01-17T06:10:21.264Z,1.20
2023-01-17T06:13:00.742Z,1.40
2023-01-17T06:15:33.522Z,1.23
2023-01-17T06:18:10.466Z,1.15
2023-01-17T06:20:41.339Z,1.60
2023-01-17T06:23:15.862Z,2.00
2023-01-17T06:25:55.873Z,2.80
2023-01-17T06:28:26.443Z,2.00
2023-01-17T06:31:00.362Z,1.23
2023-01-17T06:33:34.215Z,1.25
2023-01-17T06:36:07.270Z,1.17
2023-01-17T06:38:35.562Z,1.20
2023-01-17T06:41:08.680Z,0.90
2023-01-17T06:43:39.561Z,1.73
2023-01-17T06:46:07.530Z,1.02
2023-01-17T06:48:44.084Z,1.20
2023-01-17T06:51:12.909Z,1.08
2023-01-17T06:53:43.555Z,1.25
2023-01-17T06:56:18.351Z,1.10
2023-01-17T06:58:52.728Z,0.90
2023-01-17T07:01:20.989Z,1.15
2023-01-17T07:03:52.684Z,1.40
2023-01-17T07:06:24.489Z,1.10
2023-01-17T07:08:57.537Z,2.25
2023-01-17T07:11:31.799Z,3.10
2023-01-17T07:14:02.454Z,4.63
2023-01-17T07:16:37.162Z,6.22
2023-01-17T07:19:07.600Z,5.03
2023-01-17T07:21:51.221Z,4.30
2023-01-17T07:24:36.955Z,2.65
2023-01-17T07:27:09.122Z,2.17
2023-01-17T07:29:47.542Z,2.80
2023-01-17T07:32:29.722Z,2.42
2023-01-17T07:34:59.043Z,1.70
2023-01-17T07:37:28.449Z,1.67
2023-01-17T07:40:26.916Z,1.58
2023-01-17T07:43:29.115Z,1.60
2023-01-17T07:45:56.678Z,1.38
2023-01-17T07:48:24.942Z,1.52
2023-01-17T07:50:56.555Z,1.20
2023-01-17T07:53:25.433Z,1.63
2023-01-17T07:55:53.017Z,1.23
2023-01-17T07:58:20.452Z,3.08
2023-01-17T08:00:47.930Z,1.40
2023-01-17T08:03:17.556Z,1.25
2023-01-17T08:05:53.697Z,4.60
2023-01-17T08:08:20.758Z,5.07
2023-01-17T08:10:47.688Z,5.07
2023-01-17T08:13:14.633Z,6.25
2023-01-17T08:15:41.704Z,3.70
2023-01-17T08:18:08.601Z,2.67
2023-01-17T08:20:35.514Z,2.50
2023-01-17T08:23:02.403Z,1.40
2023-01-17T08:25:29.408Z,1.55
2023-01-17T08:27:57.944Z,3.92
2023-01-17T08:30:25.779Z,5.13
2023-01-17T08:32:53.148Z,5.50
2023-01-17T08:35:21.093Z,5.22
2023-01-17T08:37:52.980Z,4.20
2023-01-17T08:40:23.652Z,4.28
2023-01-17T08:42:57.830Z,2.33
2023-01-17T08:45:25.139Z,4.38
2023-01-17T08:47:52.530Z,5.68
2023-01-17T08:50:25.017Z,10.73
2023-01-17T08:52:58.661Z,9.45
2023-01-17T08:55:28.145Z,12.10
2023-01-17T08:57:57.042Z,10.98
2023-01-17T09:00:24.004Z,8.43
2023-01-17T09:02:54.207Z,5.35
2023-01-17T09:05:21.225Z,13.82
2023-01-17T09:07:48.187Z,14.98
2023-01-17T09:10:15.326Z,17.00
2023-01-17T09:12:42.267Z,14.05
2023-01-17T09:15:09.631Z,13.40
2023-01-17T09:17:36.576Z,12.70
2023-01-17T09:20:03.649Z,10.25
2023-01-17T09:22:30.636Z,9.82
2023-01-17T09:24:57.653Z,10.38
2023-01-17T09:27:24.674Z,15.43
2023-01-17T09:29:51.581Z,15.35
2023-01-17T09:32:18.544Z,14.68
2023-01-17T09:34:47.026Z,14.20
2023-01-17T09:37:14.140Z,12.75
2023-01-17T09:39:41.027Z,9.00
2023-01-17T09:42:11.017Z,9.70
2023-01-17T09:44:59.012Z,10.60
2023-01-17T09:47:36.518Z,5.22
2023-01-17T09:50:30.681Z,5.38
2023-01-17T09:53:18.392Z,4.95
2023-01-17T09:56:14.281Z,4.38
2023-01-17T09:59:14.245Z,4.82
2023-01-17T10:02:17.969Z,3.85
2023-01-17T10:05:14.187Z,4.35
2023-01-17T10:08:20.400Z,3.67
2023-01-17T10:11:40.607Z,4.60
2023-01-17T10:14:31.559Z,3.20
2023-01-17T10:18:12.784Z,2.78
2023-01-17T10:21:14.794Z,3.55
2023-01-17T10:24:01.569Z,3.75
2023-01-17T10:26:31.725Z,3.38
2023-01-17T10:29:08.256Z,4.90
2023-01-17T10:31:45.566Z,3.53
2023-01-17T10:34:40.473Z,3.67
2023-01-17T10:37:37.202Z,5.18
2023-01-17T10:40:46.273Z,5.25
2023-01-17T10:43:21.085Z,4.70
2023-01-17T10:45:59.876Z,4.20
2023-01-17T10:48:58.461Z,3.50
2023-01-17T10:52:31.402Z,5.38
2023-01-17T10:55:56.358Z,6.90
2023-01-17T10:58:39.368Z,5.05
2023-01-17T11:01:50.293Z,12.88
2023-01-17T11:05:19.036Z,6.10
2023-01-17T11:08:35.150Z,3.70
2023-01-17T11:11:20.852Z,3.65
2023-01-17T11:13:55.767Z,3.00
2023-01-17T11:16:27.705Z,3.80
2023-01-17T11:22:11.444Z,3.25
2023-01-17T11:24:56.833Z,3.10
2023-01-17T11:30:31.686Z,3.67
2023-01-17T11:33:07.204Z,3.17
2023-01-17T11:35:48.588Z,2.92
2023-01-17T11:38:30.276Z,2.88
2023-01-17T11:41:21.337Z,2.30
2023-01-17T11:43:58.397Z,2.70
2023-01-17T11:49:25.776Z,3.10
2023-01-17T11:55:22.126Z,2.30
2023-01-17T11:58:00.126Z,2.50
2023-01-17T12:00:43.030Z,2.78
2023-01-17T12:03:58.021Z,2.25
2023-01-17T12:06:57.631Z,2.58
2023-01-17T12:10:00.389Z,2.85
2023-01-17T12:13:21.126Z,2.72
2023-01-17T12:16:29.319Z,3.00
2023-01-17T12:19:16.685Z,2.70
2023-01-17T12:22:21.291Z,2.90
2023-01-17T12:25:18.555Z,3.20
2023-01-17T12:28:49.113Z,3.58
2023-01-17T12:31:55.472Z,4.63
2023-01-17T12:34:41.980Z,4.47
2023-01-17T12:37:19.262Z,3.65
2023-01-17T12:39:59.823Z,4.63
2023-01-17T12:42:35.819Z,3.53
2023-01-17T12:45:15.356Z,3.05
2023-01-17T12:47:49.139Z,3.85
2023-01-17T12:50:28.546Z,4.20
2023-01-17T12:53:18.796Z,5.20
2023-01-17T12:55:57.560Z,3.67
2023-01-17T12:58:34.947Z,3.97
2023-01-17T13:01:07.520Z,3.50
2023-01-17T13:03:47.523Z,5.47
2023-01-17T13:06:38.011Z,3.30
2023-01-17T13:09:05.649Z,2.88
2023-01-17T13:11:46.596Z,3.40
2023-01-17T13:14:13.546Z,2.85
2023-01-17T13:16:46.360Z,3.30
2023-01-17T13:19:27.868Z,3.45
2023-01-17T13:21:57.447Z,4.03
2023-01-17T13:24:33.708Z,3.63
2023-01-17T13:27:18.819Z,2.50
2023-01-17T13:30:19.123Z,2.80
2023-01-17T13:33:15.199Z,2.88
2023-01-17T13:36:14.448Z,2.08
2023-01-17T13:39:16.689Z,3.38
2023-01-17T13:42:08.462Z,2.75
2023-01-17T13:44:36.488Z,4.20
2023-01-17T13:47:26.141Z,4.20
2023-01-17T13:49:56.730Z,5.97
2023-01-17T13:52:26.819Z,3.55
2023-01-17T13:54:56.343Z,2.40
2023-01-17T13:57:29.363Z,2.30
2023-01-17T13:59:57.919Z,2.10
2023-01-17T14:02:44.149Z,2.85
2023-01-17T14:05:43.771Z,3.30
2023-01-17T14:08:42.898Z,3.67
2023-01-17T14:11:19.741Z,3.83
2023-01-17T14:14:20.686Z,4.78
2023-01-17T14:17:30.232Z,2.85
2023-01-17T14:23:22.415Z,3.33
2023-01-17T14:26:08.803Z,4.00
2023-01-17T14:29:05.281Z,2.78
2023-01-17T14:31:34.187Z,3.10
2023-01-17T14:34:59.263Z,5.10
2023-01-17T14:37:51.275Z,3.65
2023-01-17T14:40:28.467Z,3.30
2023-01-17T14:43:07.404Z,4.13
2023-01-17T14:45:43.187Z,4.10
2023-01-17T14:48:30.505Z,3.35
2023-01-17T14:51:14.797Z,3.67
2023-01-17T14:54:11.996Z,4.88
2023-01-17T14:59:54.014Z,5.20
2023-01-17T15:02:36.130Z,7.05
2023-01-17T15:05:18.783Z,4.22
2023-01-17T15:07:56.195Z,4.80
2023-01-17T15:11:02.477Z,3.33
2023-01-17T15:14:08.936Z,2.72
2023-01-17T15:16:38.990Z,3.13
2023-01-17T15:19:15.473Z,3.17
2023-01-17T15:21:58.129Z,3.70
2023-01-17T15:24:29.446Z,8.70
2023-01-17T15:27:14.624Z,4.60
2023-01-17T15:29:52.036Z,4.20
2023-01-17T15:32:39.102Z,4.22
2023-01-17T15:35:26.731Z,5.55
2023-01-17T15:37:59.189Z,4.60
2023-01-17T15:40:28.745Z,4.03
2023-01-17T15:43:02.753Z,4.18
2023-01-17T15:48:41.402Z,5.43
2023-01-17T15:51:31.849Z,4.82
2023-01-17T15:54:33.980Z,5.25
2023-01-17T15:58:00.091Z,10.57
2023-01-17T16:00:50.499Z,4.57
2023-01-17T16:04:14.073Z,3.17
2023-01-17T16:06:49.271Z,3.42
2023-01-17T16:09:22.275Z,3.10
2023-01-17T16:11:49.245Z,2.17
2023-01-17T16:14:17.735Z,2.42
2023-01-17T16:16:53.093Z,3.80
2023-01-17T16:19:21.479Z,4.57
2023-01-17T16:21:48.535Z,4.32
2023-01-17T16:24:15.710Z,8.77
2023-01-17T16:26:42.784Z,6.18
2023-01-17T16:29:10.184Z,6.43
2023-01-17T16:31:37.109Z,5.65
2023-01-17T16:34:14.548Z,5.45
2023-01-17T16:36:41.642Z,5.53
2023-01-17T16:39:11.081Z,4.80
2023-01-17T16:41:38.179Z,6.18
2023-01-17T16:44:06.250Z,7.13
2023-01-17T16:46:34.901Z,8.50
2023-01-17T16:49:01.928Z,8.20
2023-01-17T16:51:28.823Z,9.05
2023-01-17T16:53:55.729Z,7.55
2023-01-17T16:56:22.690Z,6.95
2023-01-17T16:58:52.457Z,8.02
2023-01-17T17:01:21.245Z,8.55
2023-01-17T17:03:48.503Z,7.82
2023-01-17T17:06:15.462Z,10.20
2023-01-17T17:08:43.214Z,10.70
2023-01-17T17:11:19.356Z,12.70
2023-01-17T17:13:47.982Z,10.98
2023-01-17T17:16:29.858Z,11.23
2023-01-17T17:19:00.501Z,23.40
2023-01-17T17:21:28.810Z,16.23
2023-01-17T17:23:57.995Z,10.63
2023-01-17T17:26:32.125Z,9.32
2023-01-17T17:28:59.156Z,10.43
2023-01-17T17:31:26.677Z,11.13
2023-01-17T17:34:01.234Z,10.85
2023-01-17T17:36:28.171Z,9.30
2023-01-17T17:38:56.977Z,13.45
2023-01-17T17:41:27.403Z,14.55
2023-01-17T17:43:54.752Z,12.95
2023-01-17T17:46:23.423Z,12.27
2023-01-17T17:48:50.422Z,11.48
2023-01-17T17:51:31.956Z,10.88
2023-01-17T17:54:01.669Z,9.40
2023-01-17T17:56:30.868Z,9.35
2023-01-17T17:58:59.568Z,8.93
2023-01-17T18:01:26.996Z,9.30
2023-01-17T18:03:57.059Z,9.60
2023-01-17T18:06:24.458Z,8.98
2023-01-17T18:08:54.271Z,8.00
2023-01-17T18:11:24.164Z,8.90
2023-01-17T18:13:52.511Z,6.53
2023-01-17T18:16:26.008Z,6.68
2023-01-17T18:18:55.171Z,7.10
2023-01-17T18:21:29.118Z,7.57
2023-01-17T18:24:01.780Z,8.80
2023-01-17T18:26:34.542Z,9.68
2023-01-17T18:29:03.743Z,9.10
2023-01-17T18:31:31.680Z,8.65
2023-01-17T18:34:00.308Z,9.23
2023-01-17T18:36:28.855Z,9.10
2023-01-17T18:38:56.105Z,7.82
2023-01-17T18:41:28.936Z,7.40
2023-01-17T18:43:56.171Z,6.20
2023-01-17T18:46:25.850Z,8.23
2023-01-17T18:48:56.008Z,9.25
2023-01-17T18:51:23.642Z,10.32
2023-01-17T18:53:50.658Z,17.35
2023-01-17T18:56:22.557Z,16.73
2023-01-17T18:58:50.755Z,14.18
2023-01-17T19:01:23.577Z,12.68
2023-01-17T19:03:52.889Z,11.65
2023-01-17T19:06:35.899Z,11.85
2023-01-17T19:09:03.976Z,12.70
2023-01-17T19:11:31.011Z,12.23
2023-01-17T19:13:57.965Z,11.15
2023-01-17T19:16:30.743Z,10.73
2023-01-17T19:19:02.399Z,10.95
2023-01-17T19:21:30.147Z,9.57
2023-01-17T19:23:58.045Z,20.63
2023-01-17T19:26:27.243Z,14.75
2023-01-17T19:29:03.852Z,15.13
2023-01-17T19:31:32.447Z,16.50
2023-01-17T19:33:59.999Z,10.68
2023-01-17T19:36:34.449Z,13.00
2023-01-17T19:39:05.328Z,13.35
2023-01-17T19:41:35.462Z,17.58
2023-01-17T19:44:05.844Z,14.38
2023-01-17T19:46:34.883Z,15.68
2023-01-17T19:49:02.233Z,17.58
2023-01-17T19:51:29.850Z,9.98
2023-01-17T19:53:59.171Z,11.32
2023-01-17T19:56:27.012Z,11.52
2023-01-17T19:58:54.266Z,65.97
2023-01-17T20:01:24.754Z,8.30
2023-01-17T20:03:52.335Z,7.18
2023-01-17T20:06:22.042Z,7.72
2023-01-17T20:08:49.092Z,14.38
2023-01-17T20:11:19.636Z,10.40
2023-01-17T20:13:47.819Z,20.30
2023-01-17T20:16:16.596Z,10.75
2023-01-17T20:18:44.316Z,10.15
2023-01-17T20:21:17.312Z,10.93
2023-01-17T20:26:16.189Z,14.38
2023-01-17T20:28:46.488Z,24.42
2023-01-17T20:31:19.730Z,12.52
2023-01-17T20:33:47.816Z,12.82
2023-01-17T20:36:16.988Z,12.18
2023-01-17T20:38:45.093Z,12.93
2023-01-17T20:41:14.927Z,11.95
2023-01-17T20:43:43.352Z,10.65
2023-01-17T20:46:10.849Z,10.55
2023-01-17T20:48:42.838Z,11.23
2023-01-17T20:51:11.109Z,12.93
2023-01-17T20:53:39.625Z,14.27
2023-01-17T20:56:08.728Z,10.70
2023-01-17T20:58:35.897Z,7.13
2023-01-17T21:01:03.155Z,6.10
2023-01-17T21:03:33.410Z,8.35
2023-01-17T21:06:01.936Z,9.73
2023-01-17T21:08:30.226Z,8.60
2023-01-17T21:10:57.650Z,49.55
2023-01-17T21:13:25.098Z,9.05
2023-01-17T21:15:52.181Z,4.97
2023-01-17T21:18:20.998Z,4.85
2023-01-17T21:20:48.168Z,3.22
2023-01-17T21:23:18.290Z,5.07
2023-01-17T21:26:06.279Z,4.30
2023-01-17T21:28:39.740Z,11.50
2023-01-17T21:31:20.520Z,3.10
2023-01-17T21:33:48.007Z,1.52
2023-01-17T21:36:15.132Z,3.25
2023-01-17T21:38:42.624Z,3.30
2023-01-17T21:41:09.621Z,2.53
2023-01-17T21:43:36.581Z,1.10
2023-01-17T21:46:04.818Z,1.52
2023-01-17T21:48:31.866Z,1.20
2023-01-17T21:51:09.131Z,1.30
2023-01-17T21:53:37.530Z,1.00
2023-01-17T21:56:25.451Z,1.30
2023-01-17T21:58:56.576Z,2.85
2023-01-17T22:01:26.094Z,2.60
2023-01-17T22:03:55.993Z,1.80
2023-01-17T22:06:28.308Z,2.65
2023-01-17T22:08:56.176Z,2.17
2023-01-17T22:11:25.723Z,1.50
2023-01-17T22:13:53.132Z,2.85
2023-01-17T22:16:26.411Z,4.28
2023-01-17T22:18:53.748Z,1.92
2023-01-17T22:21:26.709Z,1.35
2023-01-17T22:26:22.867Z,1.30
2023-01-17T22:28:49.869Z,1.30
2023-01-17T22:31:20.862Z,1.25
2023-01-17T22:33:56.032Z,1.33
2023-01-17T22:36:24.025Z,1.35
2023-01-17T22:38:52.692Z,1.33
2023-01-17T22:41:24.772Z,1.20
2023-01-17T22:43:53.836Z,1.37
2023-01-17T22:46:26.947Z,1.50
2023-01-17T22:48:55.292Z,1.40
2023-01-17T22:51:32.703Z,1.80
2023-01-17T22:54:05.571Z,2.00
2023-01-17T22:56:37.052Z,1.75
2023-01-17T22:59:13.603Z,1.60
2023-01-17T23:01:41.324Z,1.92
2023-01-17T23:04:19.749Z,1.55
2023-01-17T23:06:47.443Z,1.50
2023-01-17T23:09:23.300Z,1.60
2023-01-17T23:11:57.452Z,1.50
2023-01-17T23:15:09.671Z,2.28
2023-01-17T23:17:58.311Z,1.10
2023-01-17T23:20:28.226Z,1.20
2023-01-17T23:23:00.860Z,1.00
2023-01-17T23:25:45.823Z,1.13
2023-01-17T23:28:21.776Z,1.15
2023-01-17T23:31:04.021Z,1.25
2023-01-17T23:33:40.542Z,2.08
2023-01-17T23:36:11.919Z,1.13
2023-01-17T23:38:46.523Z,1.40
2023-01-17T23:41:34.355Z,1.60
2023-01-17T23:44:04.956Z,2.20
2023-01-17T23:46:33.688Z,1.70
2023-01-17T23:49:06.352Z,1.33
2023-01-17T23:51:38.242Z,1.17
2023-01-17T23:54:14.887Z,1.23
2023-01-17T23:56:46.100Z,1.30
2023-01-17T23:59:14.483Z,1.52
